createdAt,value
2022-09-18T00:00:25.629Z,98659.34
2022-09-18T00:02:55.081Z,98660.63
2022-09-18T00:05:26.617Z,98665.38
2022-09-18T00:07:58.603Z,98653.19
2022-09-18T00:10:28.672Z,98655.25
2022-09-18T00:12:58.337Z,98648.28
2022-09-18T00:15:27.151Z,98652.09
2022-09-18T00:17:55.682Z,98645.88
2022-09-18T00:20:30.696Z,98645.37
2022-09-18T00:23:00.062Z,98645.59
2022-09-18T00:25:32.934Z,98651.97
2022-09-18T00:28:01.573Z,98646.63
2022-09-18T00:30:32.808Z,98646.19
2022-09-18T00:33:01.462Z,98645.53
2022-09-18T00:35:31.707Z,98650.13
2022-09-18T00:38:07.856Z,98647.88
2022-09-18T00:40:36.261Z,98658.00
2022-09-18T00:43:11.233Z,98649.78
2022-09-18T00:45:39.606Z,98648.78
2022-09-18T00:48:10.976Z,98647.53
2022-09-18T00:50:41.229Z,98653.44
2022-09-18T00:53:10.147Z,98645.25
2022-09-18T00:55:39.005Z,98652.66
2022-09-18T00:58:12.735Z,98651.13
2022-09-18T01:00:41.333Z,98649.94
2022-09-18T01:03:19.445Z,98649.03
2022-09-18T01:05:53.165Z,98658.91
2022-09-18T01:08:24.259Z,98650.50
2022-09-18T01:10:59.295Z,98661.03
2022-09-18T01:13:30.099Z,98665.00
2022-09-18T01:16:01.029Z,98657.09
2022-09-18T01:18:30.820Z,98666.22
2022-09-18T01:21:13.897Z,98661.16
2022-09-18T01:23:48.805Z,98676.13
2022-09-18T01:26:21.493Z,98672.22
2022-09-18T01:28:53.138Z,98675.59
2022-09-18T01:31:29.467Z,98684.44
2022-09-18T01:33:59.576Z,98695.53
2022-09-18T01:36:34.365Z,98698.88
2022-09-18T01:39:09.576Z,98697.00
2022-09-18T01:41:38.523Z,98701.72
2022-09-18T01:44:16.677Z,98709.59
2022-09-18T01:46:45.318Z,98717.16
2022-09-18T01:49:14.232Z,98723.44
2022-09-18T01:51:44.497Z,98729.59
2022-09-18T01:54:15.679Z,98729.84
2022-09-18T01:56:52.956Z,98725.47
2022-09-18T01:59:40.552Z,98737.56
2022-09-18T02:02:13.703Z,98735.00
2022-09-18T02:04:48.799Z,98740.81
2022-09-18T02:07:23.224Z,98740.50
2022-09-18T02:09:51.863Z,98744.03
2022-09-18T02:12:21.504Z,98745.56
2022-09-18T02:14:53.060Z,98759.28
2022-09-18T02:17:27.135Z,98764.75
2022-09-18T02:19:55.911Z,98759.06
2022-09-18T02:22:30.285Z,98758.69
2022-09-18T02:24:59.552Z,98767.13
2022-09-18T02:27:29.555Z,98774.03
2022-09-18T02:29:59.557Z,98782.97
2022-09-18T02:32:31.531Z,98779.09
2022-09-18T02:35:00.154Z,98783.84
2022-09-18T02:37:31.926Z,98784.44
2022-09-18T02:40:25.811Z,98788.13
2022-09-18T02:42:57.053Z,98791.81
2022-09-18T02:45:28.856Z,98790.47
2022-09-18T02:48:03.846Z,98799.19
2022-09-18T02:50:37.787Z,98798.16
2022-09-18T02:53:09.096Z,98803.91
2022-09-18T02:55:44.349Z,98800.16
2022-09-18T02:58:14.233Z,98801.97
2022-09-18T03:00:44.334Z,98797.84
2022-09-18T03:03:14.502Z,98800.56
2022-09-18T03:05:44.634Z,98805.56
2022-09-18T03:08:12.983Z,98804.69
2022-09-18T03:10:45.145Z,98814.13
2022-09-18T03:13:13.762Z,98814.59
2022-09-18T03:15:47.110Z,98817.72
2022-09-18T03:18:17.123Z,98819.22
2022-09-18T03:20:48.243Z,98824.56
2022-09-18T03:23:17.136Z,98821.09
2022-09-18T03:25:50.149Z,98830.31
2022-09-18T03:28:19.217Z,98831.47
2022-09-18T03:30:49.987Z,98837.28
2022-09-18T03:33:19.965Z,98843.81
2022-09-18T03:35:53.366Z,98841.66
2022-09-18T03:38:22.157Z,98842.06
2022-09-18T03:40:54.478Z,98842.84
2022-09-18T03:43:23.127Z,98848.59
2022-09-18T03:45:54.910Z,98847.59
2022-09-18T03:48:24.895Z,98857.53
2022-09-18T03:50:53.729Z,98854.50
2022-09-18T03:53:23.003Z,98861.44
2022-09-18T03:55:53.108Z,98861.69
2022-09-18T03:58:22.442Z,98858.97
2022-09-18T04:00:52.031Z,98864.59
2022-09-18T04:03:30.782Z,98865.94
2022-09-18T04:06:05.678Z,98868.84
2022-09-18T04:08:38.751Z,98874.75
2022-09-18T04:11:09.689Z,98877.59
2022-09-18T04:13:40.132Z,98878.53
2022-09-18T04:16:10.157Z,98875.00
2022-09-18T04:18:48.314Z,98880.78
2022-09-18T04:21:16.680Z,98882.94
2022-09-18T04:23:47.096Z,98879.63
2022-09-18T04:26:15.495Z,98883.75
2022-09-18T04:28:49.271Z,98884.66
2022-09-18T04:31:17.656Z,98880.66
2022-09-18T04:33:51.085Z,98885.28
2022-09-18T04:36:19.743Z,98882.50
2022-09-18T04:38:51.439Z,98885.12
2022-09-18T04:41:21.366Z,98889.38
2022-09-18T04:43:52.632Z,98894.75
2022-09-18T04:46:21.283Z,98892.34
2022-09-18T04:48:55.243Z,98895.91
2022-09-18T04:51:24.438Z,98898.53
2022-09-18T04:53:56.462Z,98906.56
2022-09-18T04:56:25.017Z,98912.13
2022-09-18T04:58:57.075Z,98919.31
2022-09-18T05:01:28.474Z,98917.31
2022-09-18T05:04:06.153Z,98913.13
2022-09-18T05:06:47.105Z,98916.59
2022-09-18T05:09:24.287Z,98921.19
2022-09-18T05:11:54.517Z,98917.97
2022-09-18T05:14:28.339Z,98921.34
2022-09-18T05:16:57.541Z,98923.94
2022-09-18T05:19:27.749Z,98920.41
2022-09-18T05:21:56.939Z,98923.66
2022-09-18T05:24:27.894Z,98936.00
2022-09-18T05:26:56.341Z,98927.34
2022-09-18T05:29:28.450Z,98930.69
2022-09-18T05:31:57.565Z,98930.66
2022-09-18T05:34:31.260Z,98920.13
2022-09-18T05:36:59.953Z,98922.19
2022-09-18T05:39:37.376Z,98929.97
2022-09-18T05:42:08.807Z,98927.56
2022-09-18T05:44:40.725Z,98939.91
2022-09-18T05:47:16.158Z,98933.31
2022-09-18T05:49:45.832Z,98933.13
2022-09-18T05:52:16.163Z,98940.94
2022-09-18T05:54:45.337Z,98934.09
2022-09-18T05:57:14.157Z,98924.13
2022-09-18T05:59:43.120Z,98936.81
2022-09-18T06:02:14.623Z,98938.91
2022-09-18T06:04:47.874Z,98934.37
2022-09-18T06:07:23.921Z,98936.25
2022-09-18T06:09:52.565Z,98938.44
2022-09-18T06:12:24.194Z,98941.87
2022-09-18T06:14:52.782Z,98936.94
2022-09-18T06:17:24.110Z,98942.22
2022-09-18T06:19:54.878Z,98944.97
2022-09-18T06:22:24.455Z,98947.63
2022-09-18T06:24:53.059Z,98949.28
2022-09-18T06:27:27.634Z,98960.41
2022-09-18T06:29:56.227Z,98957.16
2022-09-18T06:32:28.712Z,98954.22
2022-09-18T06:34:58.772Z,98952.19
2022-09-18T06:37:30.640Z,98961.91
2022-09-18T06:39:59.349Z,98956.81
2022-09-18T06:42:32.518Z,98953.16
2022-09-18T06:45:01.378Z,98957.09
2022-09-18T06:47:32.141Z,98950.34
2022-09-18T06:50:02.287Z,98957.91
2022-09-18T06:52:39.821Z,98947.84
2022-09-18T06:55:11.457Z,98954.72
2022-09-18T06:57:43.452Z,98953.16
2022-09-18T07:00:18.207Z,98943.13
2022-09-18T07:02:46.544Z,98966.84
2022-09-18T07:05:22.306Z,98951.88
2022-09-18T07:07:50.702Z,98949.81
2022-09-18T07:10:22.084Z,98968.03
2022-09-18T07:12:50.745Z,98960.06
2022-09-18T07:15:21.924Z,98959.03
2022-09-18T07:17:50.232Z,98971.44
2022-09-18T07:20:23.401Z,98955.19
2022-09-18T07:22:54.928Z,98969.94
2022-09-18T07:25:30.006Z,98989.22
2022-09-18T07:28:05.194Z,98967.03
2022-09-18T07:30:34.000Z,98987.75
2022-09-18T07:33:07.767Z,98972.19
2022-09-18T07:35:43.157Z,98981.56
2022-09-18T07:38:15.898Z,98988.50
2022-09-18T07:40:51.442Z,98986.19
2022-09-18T07:43:21.123Z,98961.50
2022-09-18T07:45:52.897Z,98978.50
2022-09-18T07:48:21.741Z,99004.19
2022-09-18T07:50:57.295Z,99007.25
2022-09-18T07:53:26.120Z,99008.03
2022-09-18T07:55:57.646Z,99005.78
2022-09-18T07:58:26.925Z,98989.84
2022-09-18T08:01:01.080Z,98999.69
2022-09-18T08:03:30.050Z,99012.44
2022-09-18T08:06:00.996Z,99004.69
2022-09-18T08:08:30.261Z,99001.94
2022-09-18T08:10:59.318Z,99001.56
2022-09-18T08:13:32.157Z,99007.34
2022-09-18T08:16:04.287Z,99006.28
2022-09-18T08:18:34.376Z,99011.16
2022-09-18T08:21:11.536Z,99017.72
2022-09-18T08:23:47.307Z,99036.66
2022-09-18T08:26:20.000Z,99020.22
2022-09-18T08:28:56.132Z,99014.97
2022-09-18T08:31:32.318Z,99029.22
2022-09-18T08:34:01.039Z,99012.56
2022-09-18T08:36:30.873Z,99009.66
2022-09-18T08:38:59.833Z,99011.66
2022-09-18T08:41:36.798Z,99029.16
2022-09-18T08:44:11.172Z,99026.22
2022-09-18T08:46:41.608Z,99042.72
2022-09-18T08:49:17.079Z,99024.50
2022-09-18T08:51:48.771Z,99036.81
2022-09-18T08:54:20.644Z,99016.25
2022-09-18T08:56:49.241Z,99028.44
2022-09-18T08:59:20.798Z,99020.34
2022-09-18T09:01:51.312Z,99041.37
2022-09-18T09:04:21.635Z,99038.13
2022-09-18T09:07:04.438Z,99033.94
2022-09-18T09:09:44.094Z,99036.06
2022-09-18T09:12:14.829Z,99033.66
2022-09-18T09:14:57.007Z,99032.97
2022-09-18T09:17:34.288Z,99041.97
2022-09-18T09:20:08.720Z,99054.44
2022-09-18T09:22:40.155Z,99042.13
2022-09-18T09:25:12.650Z,99047.34
2022-09-18T09:27:43.504Z,99032.75
2022-09-18T09:30:13.936Z,99033.72
2022-09-18T09:33:03.246Z,99051.81
2022-09-18T09:35:38.886Z,99043.06
2022-09-18T09:40:52.284Z,99033.28
2022-09-18T09:43:24.599Z,99041.41
2022-09-18T09:45:53.187Z,99045.12
2022-09-18T09:48:23.287Z,99055.91
2022-09-18T09:50:54.578Z,99048.63
2022-09-18T09:53:25.332Z,99054.13
2022-09-18T09:55:56.117Z,99055.59
2022-09-18T09:58:29.208Z,99054.25
2022-09-18T10:00:59.419Z,99061.56
2022-09-18T10:03:35.960Z,99051.50
2022-09-18T10:06:10.994Z,99066.97
2022-09-18T10:08:42.492Z,99058.94
2022-09-18T10:11:13.186Z,99066.69
2022-09-18T10:13:42.423Z,99072.25
2022-09-18T10:16:12.082Z,99093.03
2022-09-18T10:18:41.068Z,99079.31
2022-09-18T10:21:15.597Z,99075.62
2022-09-18T10:23:46.474Z,99072.22
2022-09-18T10:26:16.840Z,99082.66
2022-09-18T10:28:45.130Z,99091.88
2022-09-18T10:31:16.611Z,99060.34
2022-09-18T10:33:46.489Z,99068.28
2022-09-18T10:36:20.071Z,99076.31
2022-09-18T10:38:52.448Z,99074.84
2022-09-18T10:41:24.731Z,99078.34
2022-09-18T10:43:54.983Z,99078.00
2022-09-18T10:46:31.515Z,99083.19
2022-09-18T10:49:02.552Z,99081.47
2022-09-18T10:51:30.949Z,99067.38
2022-09-18T10:54:05.460Z,99064.94
2022-09-18T10:56:36.350Z,99071.41
2022-09-18T10:59:14.212Z,99079.16
2022-09-18T11:01:48.411Z,99069.31
2022-09-18T11:04:17.819Z,99074.38
2022-09-18T11:06:49.566Z,99078.09
2022-09-18T11:09:21.090Z,99074.84
2022-09-18T11:11:53.340Z,99084.41
2022-09-18T11:14:23.553Z,99084.41
2022-09-18T11:16:52.767Z,99073.78
2022-09-18T11:19:25.248Z,99083.97
2022-09-18T11:21:56.230Z,99074.75
2022-09-18T11:24:27.320Z,99073.97
2022-09-18T11:26:57.530Z,99079.47
2022-09-18T11:29:29.136Z,99080.19
2022-09-18T11:31:58.438Z,99078.09
2022-09-18T11:34:29.049Z,99069.91
2022-09-18T11:36:59.515Z,99082.75
2022-09-18T11:39:42.782Z,99067.00
2022-09-18T11:42:21.885Z,99060.94
2022-09-18T11:44:51.046Z,99065.59
2022-09-18T11:47:37.727Z,99066.47
2022-09-18T11:50:09.870Z,99073.09
2022-09-18T11:52:44.899Z,99059.88
2022-09-18T11:55:30.511Z,99064.59
2022-09-18T11:57:59.842Z,99058.50
2022-09-18T12:00:30.000Z,99051.88
2022-09-18T12:03:00.523Z,99054.69
2022-09-18T12:05:35.443Z,99061.38
2022-09-18T12:08:05.772Z,99052.50
2022-09-18T12:10:57.158Z,99036.81
2022-09-18T12:13:41.035Z,99063.22
2022-09-18T12:16:12.493Z,99053.75
2022-09-18T12:19:03.269Z,99044.94
2022-09-18T12:24:19.429Z,99051.97
2022-09-18T12:27:04.916Z,99041.16
2022-09-18T12:29:44.134Z,99034.91
2022-09-18T12:32:24.161Z,99046.41
2022-09-18T12:34:55.068Z,99048.09
2022-09-18T12:37:33.763Z,99046.56
2022-09-18T12:40:26.706Z,99046.44
2022-09-18T12:43:01.334Z,99048.22
2022-09-18T12:45:49.770Z,99035.78
2022-09-18T12:48:31.762Z,99042.16
2022-09-18T12:51:09.662Z,99036.47
2022-09-18T12:53:42.225Z,99041.25
2022-09-18T12:56:25.692Z,99045.12
2022-09-18T12:58:59.836Z,99033.44
2022-09-18T13:01:45.788Z,99039.59
2022-09-18T13:04:45.679Z,99027.31
2022-09-18T13:07:15.143Z,99023.41
2022-09-18T13:09:51.745Z,99033.97
2022-09-18T13:12:27.071Z,99034.69
2022-09-18T13:15:07.274Z,99040.28
2022-09-18T13:17:37.892Z,99042.97
2022-09-18T13:20:12.717Z,99036.47
2022-09-18T13:22:41.587Z,99046.78
2022-09-18T13:25:15.866Z,99049.94
2022-09-18T13:27:44.671Z,99057.06
2022-09-18T13:30:17.707Z,99050.50
2022-09-18T13:32:53.685Z,99056.13
2022-09-18T13:35:25.084Z,99063.16
2022-09-18T13:38:12.817Z,99070.41
2022-09-18T13:40:49.134Z,99074.44
2022-09-18T13:43:26.559Z,99082.62
2022-09-18T13:45:58.030Z,99138.00
2022-09-18T13:48:34.232Z,99170.53
2022-09-18T13:51:05.656Z,99170.00
2022-09-18T13:53:40.233Z,99170.09
2022-09-18T13:56:09.567Z,99177.44
2022-09-18T13:59:00.498Z,99175.50
2022-09-18T14:01:57.030Z,99183.03
2022-09-18T14:04:46.681Z,99189.22
2022-09-18T14:07:30.150Z,99173.25
2022-09-18T14:10:03.907Z,99150.19
2022-09-18T14:12:34.530Z,99157.81
2022-09-18T14:15:21.051Z,99149.38
2022-09-18T14:18:05.270Z,99148.63
2022-09-18T14:20:34.198Z,99145.06
2022-09-18T14:23:17.496Z,99149.34
2022-09-18T14:25:52.431Z,99160.91
2022-09-18T14:28:22.272Z,99163.31
2022-09-18T14:31:17.975Z,99173.06
2022-09-18T14:33:46.425Z,99171.50
2022-09-18T14:36:16.429Z,99173.72
2022-09-18T14:38:45.603Z,99168.09
2022-09-18T14:41:29.247Z,99156.88
2022-09-18T14:44:06.368Z,99164.34
2022-09-18T14:46:42.209Z,99165.31
2022-09-18T14:49:24.075Z,99166.28
2022-09-18T14:52:04.035Z,99157.38
2022-09-18T14:54:40.906Z,99162.75
2022-09-18T14:57:13.549Z,99146.56
2022-09-18T14:59:50.864Z,99154.44
2022-09-18T15:02:20.666Z,99145.97
2022-09-18T15:04:52.462Z,99142.28
2022-09-18T15:07:21.507Z,99140.75
2022-09-18T15:09:59.748Z,99136.72
2022-09-18T15:12:30.900Z,99134.34
2022-09-18T15:15:06.150Z,99128.53
2022-09-18T15:17:35.376Z,99128.34
2022-09-18T15:20:08.456Z,99131.19
2022-09-18T15:22:37.110Z,99124.37
2022-09-18T15:25:05.952Z,99139.94
2022-09-18T15:27:37.681Z,99136.28
2022-09-18T15:30:09.693Z,99149.50
2022-09-18T15:32:42.552Z,99144.09
2022-09-18T15:35:14.108Z,99141.75
2022-09-18T15:37:42.823Z,99136.03
2022-09-18T15:40:17.799Z,99135.03
2022-09-18T15:42:53.096Z,99146.97
2022-09-18T15:45:27.373Z,99156.66
2022-09-18T15:47:55.896Z,99156.38
2022-09-18T15:50:40.912Z,99164.81
2022-09-18T15:53:17.268Z,99155.37
2022-09-18T15:55:54.410Z,99155.41
2022-09-18T15:58:44.106Z,99154.81
2022-09-18T16:01:18.013Z,99160.22
2022-09-18T16:03:46.625Z,99165.59
2022-09-18T16:06:22.482Z,99178.53
2022-09-18T16:08:53.869Z,99183.69
2022-09-18T16:11:43.163Z,99188.28
2022-09-18T16:14:30.480Z,99196.47
2022-09-18T16:17:13.680Z,99197.34
2022-09-18T16:19:46.543Z,99207.41
2022-09-18T16:22:16.834Z,99206.31
2022-09-18T16:24:50.807Z,99207.53
2022-09-18T16:27:22.138Z,99202.22
2022-09-18T16:29:52.001Z,99192.63
2022-09-18T16:32:21.702Z,99187.78
2022-09-18T16:34:54.290Z,99195.53
2022-09-18T16:37:22.991Z,99191.63
2022-09-18T16:39:54.350Z,99194.13
2022-09-18T16:42:23.874Z,99190.03
2022-09-18T16:45:00.393Z,99191.22
2022-09-18T16:47:29.000Z,99194.72
2022-09-18T16:49:58.910Z,99195.22
2022-09-18T16:52:27.218Z,99187.97
2022-09-18T16:54:56.801Z,99190.72
2022-09-18T16:57:27.708Z,99191.56
2022-09-18T17:00:02.660Z,99195.16
2022-09-18T17:02:31.636Z,99205.28
2022-09-18T17:05:02.311Z,99202.91
2022-09-18T17:07:31.024Z,99199.75
2022-09-18T17:10:03.402Z,99199.22
2022-09-18T17:12:31.949Z,99197.16
2022-09-18T17:15:04.827Z,99207.75
2022-09-18T17:17:34.067Z,99206.63
2022-09-18T17:20:10.069Z,99213.25
2022-09-18T17:22:38.925Z,99205.69
2022-09-18T17:25:09.762Z,99208.50
2022-09-18T17:27:43.418Z,99212.38
2022-09-18T17:30:20.722Z,99211.22
2022-09-18T17:32:52.218Z,99206.66
2022-09-18T17:35:26.186Z,99207.09
2022-09-18T17:37:58.806Z,99199.56
2022-09-18T17:40:28.712Z,99211.56
2022-09-18T17:43:01.228Z,99211.62
2022-09-18T17:45:36.056Z,99212.91
2022-09-18T17:48:04.792Z,99222.87
2022-09-18T17:50:40.146Z,99227.00
2022-09-18T17:53:10.231Z,99233.56
2022-09-18T17:55:39.556Z,99234.47
2022-09-18T17:58:07.867Z,99234.91
2022-09-18T18:00:40.037Z,99236.69
2022-09-18T18:03:09.010Z,99240.59
2022-09-18T18:06:07.291Z,99236.66
2022-09-18T18:08:38.626Z,99250.81
2022-09-18T18:11:07.681Z,99255.34
2022-09-18T18:13:36.909Z,99255.25
2022-09-18T18:16:06.532Z,99250.31
2022-09-18T18:18:35.055Z,99251.47
2022-09-18T18:21:07.574Z,99260.19
2022-09-18T18:23:40.682Z,99253.56
2022-09-18T18:26:12.378Z,99256.47
2022-09-18T18:28:41.687Z,99253.78
2022-09-18T18:31:12.898Z,99261.13
2022-09-18T18:33:42.938Z,99264.03
2022-09-18T18:36:13.725Z,99261.09
2022-09-18T18:38:44.330Z,99255.75
2022-09-18T18:41:14.551Z,99264.34
2022-09-18T18:43:45.121Z,99258.28
2022-09-18T18:46:15.783Z,99258.75
2022-09-18T18:48:46.212Z,99256.81
2022-09-18T18:51:23.148Z,99253.53
2022-09-18T18:54:03.111Z,99256.50
2022-09-18T18:56:32.491Z,99263.97
2022-09-18T18:59:03.964Z,99262.44
2022-09-18T19:01:33.082Z,99277.66
2022-09-18T19:04:02.841Z,99273.34
2022-09-18T19:06:31.659Z,99275.34
2022-09-18T19:09:05.537Z,99274.41
2022-09-18T19:11:50.846Z,99278.47
2022-09-18T19:14:29.995Z,99273.03
2022-09-18T19:16:58.544Z,99269.00
2022-09-18T19:19:30.055Z,99264.50
2022-09-18T19:21:59.745Z,99271.00
2022-09-18T19:24:32.511Z,99263.78
2022-09-18T19:27:01.314Z,99270.97
2022-09-18T19:29:31.279Z,99265.75
2022-09-18T19:32:00.347Z,99265.97
2022-09-18T19:34:31.259Z,99268.28
2022-09-18T19:37:02.276Z,99271.91
2022-09-18T19:39:39.520Z,99265.81
2022-09-18T19:42:13.116Z,99270.09
2022-09-18T19:44:44.400Z,99271.53
2022-09-18T19:47:20.710Z,99270.94
2022-09-18T19:49:49.311Z,99267.53
2022-09-18T19:52:21.031Z,99268.78
2022-09-18T19:54:52.057Z,99263.66
2022-09-18T19:57:24.493Z,99255.22
2022-09-18T19:59:54.269Z,99251.12
2022-09-18T20:02:25.463Z,99252.97
2022-09-18T20:04:54.229Z,99255.38
2022-09-18T20:07:25.978Z,99244.22
2022-09-18T20:09:55.902Z,99249.72
2022-09-18T20:12:28.957Z,99245.66
2022-09-18T20:15:01.131Z,99249.56
2022-09-18T20:17:32.294Z,99245.34
2022-09-18T20:20:01.422Z,99250.56
2022-09-18T20:22:30.183Z,99245.44
2022-09-18T20:25:00.005Z,99257.13
2022-09-18T20:27:29.381Z,99248.06
2022-09-18T20:29:58.027Z,99239.66
2022-09-18T20:32:31.629Z,99242.25
2022-09-18T20:35:00.373Z,99238.28
2022-09-18T20:37:34.548Z,99233.66
2022-09-18T20:40:05.525Z,99235.69
2022-09-18T20:42:35.561Z,99232.56
2022-09-18T20:45:08.665Z,99235.34
2022-09-18T20:47:44.824Z,99234.16
2022-09-18T20:50:15.154Z,99233.47
2022-09-18T20:52:52.318Z,99232.44
2022-09-18T20:55:24.911Z,99227.44
2022-09-18T20:57:53.255Z,99230.59
2022-09-18T21:00:25.662Z,99227.19
2022-09-18T21:02:54.055Z,99225.47
2022-09-18T21:05:27.138Z,99217.19
2022-09-18T21:08:03.135Z,99218.53
2022-09-18T21:10:33.054Z,99209.84
2022-09-18T21:13:06.428Z,99211.09
2022-09-18T21:15:35.068Z,99206.63
2022-09-18T21:18:09.997Z,99202.31
2022-09-18T21:20:38.577Z,99193.41
2022-09-18T21:23:26.576Z,99200.78
2022-09-18T21:26:05.714Z,99194.97
2022-09-18T21:28:34.400Z,99195.59
2022-09-18T21:31:10.789Z,99183.66
2022-09-18T21:33:47.170Z,99194.13
2022-09-18T21:36:19.035Z,99190.63
2022-09-18T21:38:49.101Z,99186.69
2022-09-18T21:41:22.172Z,99176.09
2022-09-18T21:43:53.348Z,99177.47
2022-09-18T21:46:31.353Z,99169.63
2022-09-18T21:49:01.508Z,99162.97
2022-09-18T21:51:29.841Z,99170.13
2022-09-18T21:54:06.779Z,99158.59
2022-09-18T21:56:36.740Z,99166.72
2022-09-18T21:59:06.443Z,99160.88
2022-09-18T22:01:35.493Z,99167.50
2022-09-18T22:04:11.275Z,99176.38
2022-09-18T22:06:42.045Z,99173.06
2022-09-18T22:09:14.216Z,99169.81
2022-09-18T22:11:51.455Z,99169.44
2022-09-18T22:14:21.977Z,99164.13
2022-09-18T22:16:57.584Z,99161.16
2022-09-18T22:19:41.257Z,99169.22
2022-09-18T22:22:12.737Z,99163.97
2022-09-18T22:24:45.275Z,99160.94
2022-09-18T22:27:19.710Z,99158.84
2022-09-18T22:29:48.358Z,99163.84
2022-09-18T22:32:25.967Z,99167.84
2022-09-18T22:34:58.247Z,99165.16
2022-09-18T22:37:35.059Z,99165.84
2022-09-18T22:40:04.645Z,99166.12
2022-09-18T22:42:34.258Z,99164.97
2022-09-18T22:45:06.022Z,99160.66
2022-09-18T22:47:34.572Z,99168.06
2022-09-18T22:50:08.464Z,99158.91
2022-09-18T22:52:38.018Z,99162.00
2022-09-18T22:55:09.606Z,99156.50
2022-09-18T22:57:40.068Z,99160.13
2022-09-18T23:00:16.565Z,99163.00
2022-09-18T23:02:49.661Z,99154.13
2022-09-18T23:05:18.184Z,99149.72
2022-09-18T23:07:49.476Z,99151.53
2022-09-18T23:10:18.799Z,99149.16
2022-09-18T23:12:55.556Z,99145.19
2022-09-18T23:15:23.923Z,99153.56
2022-09-18T23:17:57.785Z,99163.69
2022-09-18T23:20:26.210Z,99155.81
2022-09-18T23:22:59.793Z,99161.69
2022-09-18T23:25:28.075Z,99161.56
2022-09-18T23:28:01.223Z,99150.34
2022-09-18T23:30:29.561Z,99155.63
2022-09-18T23:32:59.210Z,99148.19
2022-09-18T23:35:27.644Z,99158.25
2022-09-18T23:38:00.026Z,99152.09
2022-09-18T23:40:28.610Z,99153.47
2022-09-18T23:43:03.381Z,99147.94
2022-09-18T23:45:34.740Z,99147.59
2022-09-18T23:48:03.922Z,99153.06
2022-09-18T23:50:32.494Z,99149.53
2022-09-18T23:53:06.609Z,99151.34
2022-09-18T23:55:35.203Z,99145.28
2022-09-18T23:58:09.121Z,99149.50
